createdAt,value
2022-12-18T00:01:39.502Z,101725.00
2022-12-18T00:06:39.370Z,101741.40
2022-12-18T00:11:43.023Z,101743.60
2022-12-18T00:16:42.552Z,101748.00
2022-12-18T00:21:45.036Z,101739.80
2022-12-18T00:26:47.077Z,101767.00
2022-12-18T00:31:47.218Z,101762.60
2022-12-18T00:36:46.731Z,101773.60
2022-12-18T00:42:03.403Z,101779.60
2022-12-18T00:47:04.560Z,101788.40
2022-12-18T00:52:03.798Z,101789.60
2022-12-18T00:57:02.746Z,101780.40
2022-12-18T01:02:02.163Z,101791.60
2022-12-18T01:07:01.625Z,101803.80
2022-12-18T01:12:00.555Z,101815.00
2022-12-18T01:16:59.699Z,101811.00
2022-12-18T01:21:59.484Z,101812.00
2022-12-18T01:26:59.640Z,101809.00
2022-12-18T01:32:00.932Z,101821.60
2022-12-18T01:37:04.652Z,101835.40
2022-12-18T01:42:05.460Z,101850.60
2022-12-18T01:47:04.268Z,101860.00
2022-12-18T01:52:03.694Z,101857.80
2022-12-18T01:57:03.520Z,101864.80
2022-12-18T02:02:06.120Z,101868.60
2022-12-18T02:07:22.898Z,101875.80
2022-12-18T02:12:27.738Z,101876.60
2022-12-18T02:17:35.775Z,101891.80
2022-12-18T02:22:52.900Z,101897.00
2022-12-18T02:27:57.124Z,101912.60
2022-12-18T02:32:59.064Z,101913.20
2022-12-18T02:38:00.426Z,101920.60
2022-12-18T02:43:11.893Z,101925.00
2022-12-18T02:48:12.207Z,101921.20
2022-12-18T02:53:26.859Z,101931.20
2022-12-18T02:58:36.429Z,101940.00
2022-12-18T03:03:49.859Z,101955.60
2022-12-18T03:08:59.423Z,101960.40
2022-12-18T03:14:04.479Z,101979.20
2022-12-18T03:19:11.732Z,101977.40
2022-12-18T03:24:14.098Z,101989.00
2022-12-18T03:29:21.237Z,101986.80
2022-12-18T03:34:29.603Z,101995.80
2022-12-18T03:39:29.311Z,101998.60
2022-12-18T03:44:39.231Z,102008.00
2022-12-18T03:49:48.597Z,102008.20
2022-12-18T03:54:49.889Z,102024.80
2022-12-18T03:59:52.860Z,102019.60
2022-12-18T04:04:58.384Z,102018.20
2022-12-18T04:10:01.338Z,102038.40
2022-12-18T04:15:01.771Z,102033.20
2022-12-18T04:20:00.862Z,102037.00
2022-12-18T04:24:59.785Z,102043.80
2022-12-18T04:30:04.811Z,102053.60
2022-12-18T04:35:07.727Z,102069.00
2022-12-18T04:40:09.984Z,102081.00
2022-12-18T04:45:15.348Z,102087.60
2022-12-18T04:50:15.383Z,102083.20
2022-12-18T04:55:14.642Z,102090.60
2022-12-18T05:00:18.750Z,102096.20
2022-12-18T05:05:18.277Z,102101.20
2022-12-18T05:10:17.945Z,102106.20
2022-12-18T05:15:19.775Z,102111.00
2022-12-18T05:20:20.192Z,102119.80
2022-12-18T05:25:20.104Z,102132.80
2022-12-18T05:30:21.200Z,102134.00
2022-12-18T05:35:20.057Z,102145.80
2022-12-18T05:40:19.440Z,102152.60
2022-12-18T05:45:19.200Z,102154.80
2022-12-18T05:50:21.660Z,102156.80
2022-12-18T05:55:21.724Z,102170.40
2022-12-18T06:00:22.591Z,102174.60
2022-12-18T06:05:22.827Z,102180.60
2022-12-18T06:10:22.356Z,102186.80
2022-12-18T06:15:24.404Z,102195.00
2022-12-18T06:20:25.322Z,102197.60
2022-12-18T06:25:27.456Z,102204.60
2022-12-18T06:30:27.194Z,102210.60
2022-12-18T06:35:29.124Z,102223.40
2022-12-18T06:40:29.603Z,102228.00
2022-12-18T06:45:29.415Z,102241.60
2022-12-18T06:50:29.255Z,102252.80
2022-12-18T06:55:30.431Z,102267.80
2022-12-18T07:00:29.947Z,102264.40
2022-12-18T07:05:29.712Z,102275.60
2022-12-18T07:10:28.792Z,102287.40
2022-12-18T07:15:28.343Z,102286.00
2022-12-18T07:20:27.620Z,102302.80
2022-12-18T07:25:28.239Z,102311.00
2022-12-18T07:30:27.431Z,102319.20
2022-12-18T07:35:26.762Z,102320.80
2022-12-18T07:40:25.911Z,102333.40
2022-12-18T07:45:26.657Z,102330.40
2022-12-18T07:50:26.585Z,102343.20
2022-12-18T07:55:25.377Z,102340.40
2022-12-18T08:00:25.141Z,102355.60
2022-12-18T08:05:25.025Z,102366.80
2022-12-18T08:10:25.051Z,102374.20
2022-12-18T08:15:24.072Z,102384.00
2022-12-18T08:20:23.964Z,102383.80
2022-12-18T08:25:22.703Z,102392.60
2022-12-18T08:30:22.590Z,102394.80
2022-12-18T08:35:21.952Z,102407.00
2022-12-18T08:40:21.010Z,102419.00
2022-12-18T08:45:20.658Z,102430.40
2022-12-18T08:50:21.175Z,102433.60
2022-12-18T08:55:20.875Z,102429.40
2022-12-18T09:00:21.669Z,102432.80
2022-12-18T09:05:20.721Z,102442.20
2022-12-18T09:10:19.394Z,102443.60
2022-12-18T09:15:20.326Z,102440.40
2022-12-18T09:20:21.926Z,102451.40
2022-12-18T09:25:20.969Z,102452.80
2022-12-18T09:30:20.762Z,102454.40
2022-12-18T09:35:23.685Z,102461.00
2022-12-18T09:40:28.397Z,102453.80
2022-12-18T09:45:29.852Z,102461.40
2022-12-18T09:50:36.475Z,102468.80
2022-12-18T09:55:40.392Z,102469.60
2022-12-18T10:00:40.272Z,102474.40
2022-12-18T10:05:49.442Z,102479.20
2022-12-18T10:10:55.424Z,102475.60
2022-12-18T10:16:11.583Z,102476.00
2022-12-18T10:21:20.314Z,102480.00
2022-12-18T10:26:20.347Z,102492.40
2022-12-18T10:31:25.526Z,102497.80
2022-12-18T10:36:27.689Z,102492.20
2022-12-18T10:41:33.684Z,102495.80
2022-12-18T10:46:33.902Z,102494.80
2022-12-18T10:51:36.417Z,102481.40
2022-12-18T10:56:38.985Z,102484.40
2022-12-18T11:01:53.116Z,102488.40
2022-12-18T11:07:02.963Z,102491.60
2022-12-18T11:12:07.232Z,102494.40
2022-12-18T11:17:25.349Z,102499.20
2022-12-18T11:22:29.989Z,102503.60
2022-12-18T11:27:30.782Z,102508.00
2022-12-18T11:32:40.268Z,102503.80
2022-12-18T11:37:41.750Z,102503.40
2022-12-18T11:42:52.702Z,102504.00
2022-12-18T11:48:03.310Z,102504.40
2022-12-18T11:53:06.348Z,102512.40
2022-12-18T11:58:20.575Z,102517.80
2022-12-18T12:04:07.085Z,102519.40
2022-12-18T12:09:19.022Z,102518.80
2022-12-18T12:14:49.104Z,102523.80
2022-12-18T12:20:03.211Z,102520.60
2022-12-18T12:25:29.559Z,102513.80
2022-12-18T12:30:39.554Z,102525.20
2022-12-18T12:35:51.918Z,102522.20
2022-12-18T12:41:02.763Z,102531.60
2022-12-18T12:46:09.044Z,102544.20
2022-12-18T12:51:14.923Z,102556.80
2022-12-18T12:56:20.810Z,102553.80
2022-12-18T13:01:31.449Z,102549.00
2022-12-18T13:06:44.994Z,102556.20
2022-12-18T13:12:05.544Z,102581.00
2022-12-18T13:17:33.696Z,102578.00
2022-12-18T13:22:37.808Z,102585.80
2022-12-18T13:28:06.537Z,102593.80
2022-12-18T13:38:39.869Z,102599.80
2022-12-18T13:43:50.311Z,102598.00
2022-12-18T13:48:59.908Z,102601.20
2022-12-18T13:54:03.521Z,102599.40
2022-12-18T13:59:26.057Z,102604.80
2022-12-18T14:04:30.579Z,102623.80
2022-12-18T14:09:37.615Z,102625.40
2022-12-18T14:14:39.053Z,102627.40
2022-12-18T14:19:43.503Z,102622.80
2022-12-18T14:24:42.857Z,102634.20
2022-12-18T14:29:47.236Z,102633.60
2022-12-18T14:34:46.537Z,102626.00
2022-12-18T14:39:57.892Z,102621.20
2022-12-18T14:45:43.139Z,102626.40
2022-12-18T14:50:43.601Z,102637.60
2022-12-18T14:55:49.945Z,102643.60
2022-12-18T15:00:49.621Z,102641.40
2022-12-18T15:05:49.525Z,102653.60
2022-12-18T15:10:54.030Z,102657.00
2022-12-18T15:15:55.476Z,102664.40
2022-12-18T15:20:58.338Z,102669.00
2022-12-18T15:26:04.483Z,102671.20
2022-12-18T15:31:43.100Z,102668.40
2022-12-18T15:36:42.559Z,102670.20
2022-12-18T15:42:02.304Z,102668.00
2022-12-18T15:47:02.828Z,102678.60
2022-12-18T15:52:06.442Z,102683.00
2022-12-18T15:57:22.786Z,102680.80
2022-12-18T16:02:25.285Z,102691.80
2022-12-18T16:07:28.108Z,102690.20
2022-12-18T16:12:30.050Z,102696.40
2022-12-18T16:17:29.788Z,102692.60
2022-12-18T16:22:34.194Z,102688.20
2022-12-18T16:27:33.652Z,102694.80
2022-12-18T16:32:33.790Z,102700.40
2022-12-18T16:37:33.000Z,102692.80
2022-12-18T16:42:31.601Z,102689.60
2022-12-18T16:47:30.971Z,102683.60
2022-12-18T16:52:30.543Z,102699.60
2022-12-18T16:57:29.567Z,102695.20
2022-12-18T17:02:30.732Z,102696.40
2022-12-18T17:07:31.555Z,102705.40
2022-12-18T17:12:31.130Z,102710.80
2022-12-18T17:17:31.356Z,102713.20
2022-12-18T17:22:32.273Z,102725.60
2022-12-18T17:27:32.288Z,102733.00
2022-12-18T17:32:32.171Z,102729.00
2022-12-18T17:37:31.488Z,102722.60
2022-12-18T17:42:31.331Z,102719.60
2022-12-18T17:47:32.276Z,102723.40
2022-12-18T17:52:32.527Z,102720.60
2022-12-18T17:57:31.737Z,102721.20
2022-12-18T18:02:32.505Z,102725.40
2022-12-18T18:07:31.597Z,102735.40
2022-12-18T18:12:47.772Z,102737.60
2022-12-18T18:17:47.444Z,102734.80
2022-12-18T18:22:47.835Z,102731.80
2022-12-18T18:27:48.273Z,102725.00
2022-12-18T18:32:47.561Z,102724.60
2022-12-18T18:37:49.220Z,102732.00
2022-12-18T18:42:50.421Z,102742.80
2022-12-18T18:47:50.321Z,102742.80
2022-12-18T18:52:50.765Z,102736.00
2022-12-18T18:57:50.912Z,102736.60
2022-12-18T19:02:49.891Z,102740.20
2022-12-18T19:07:50.350Z,102735.00
2022-12-18T19:13:07.505Z,102721.20
2022-12-18T19:18:08.253Z,102724.80
2022-12-18T19:23:07.724Z,102742.40
2022-12-18T19:28:09.485Z,102727.60
2022-12-18T19:33:41.639Z,102737.80
2022-12-18T19:38:39.272Z,102741.40
2022-12-18T19:43:44.023Z,102761.60
2022-12-18T19:48:44.268Z,102770.00
2022-12-18T19:53:44.356Z,102775.40
2022-12-18T19:58:45.286Z,102764.80
2022-12-18T20:03:50.034Z,102770.20
2022-12-18T20:08:54.019Z,102760.40
2022-12-18T20:14:00.510Z,102757.80
2022-12-18T20:19:01.365Z,102760.40
2022-12-18T20:24:02.373Z,102764.20
2022-12-18T20:29:01.791Z,102767.60
2022-12-18T20:34:06.207Z,102748.60
2022-12-18T20:39:08.977Z,102753.60
2022-12-18T20:44:22.306Z,102763.00
2022-12-18T20:49:23.471Z,102761.00
2022-12-18T20:54:27.841Z,102758.20
2022-12-18T20:59:28.987Z,102772.60
2022-12-18T21:04:29.421Z,102786.40
2022-12-18T21:09:33.271Z,102786.20
2022-12-18T21:14:38.472Z,102795.40
2022-12-18T21:19:39.887Z,102782.00
2022-12-18T21:24:39.175Z,102784.80
2022-12-18T21:29:38.968Z,102775.20
2022-12-18T21:34:41.167Z,102776.60
2022-12-18T21:39:43.251Z,102760.40
2022-12-18T21:44:42.734Z,102758.00
2022-12-18T21:49:42.117Z,102755.00
2022-12-18T21:54:43.670Z,102758.60
2022-12-18T21:59:45.299Z,102744.40
2022-12-18T22:04:45.400Z,102721.20
2022-12-18T22:09:45.319Z,102707.80
2022-12-18T22:14:44.935Z,102706.00
2022-12-18T22:19:45.178Z,102692.40
2022-12-18T22:24:44.062Z,102685.00
2022-12-18T22:30:08.666Z,102675.20
2022-12-18T22:35:15.777Z,102677.80
2022-12-18T22:40:25.685Z,102678.80
2022-12-18T22:45:28.512Z,102674.80
2022-12-18T22:50:27.574Z,102672.60
2022-12-18T22:55:27.539Z,102667.40
2022-12-18T23:00:26.957Z,102680.40
2022-12-18T23:05:26.170Z,102668.40
2022-12-18T23:10:25.220Z,102674.60
2022-12-18T23:15:28.066Z,102682.40
2022-12-18T23:20:29.019Z,102676.00
2022-12-18T23:25:28.468Z,102671.60
2022-12-18T23:30:27.970Z,102671.20
2022-12-18T23:35:27.357Z,102665.00
2022-12-18T23:40:26.217Z,102666.80
2022-12-18T23:45:25.992Z,102666.80
2022-12-18T23:50:28.840Z,102669.00
2022-12-18T23:55:28.608Z,102665.60
